Crested Butte, CO

5:17 AM MDT on October 02, 2014 (GMT -0600)
MesoWest BUTTE CO US SNOTEL | Change Station
CLOSE
Current Station
Personal Weather Station
Location: Crested Butte, CO
Elevation: 10160 ft
Nearby Weather Stations

Elev 10160 ft 38.89 °N, 106.95 °W | Updated 16 hours ago

Partly Cloudy
Partly Cloudy
25 °F
Feels Like 18 °F
N
8
Wind Variable Wind from NNW
Gusts 12 mph

Today
High -- | Low -- °F
--% Chance of Precip.
Yesterday
High -- | Low -- °F
Precip. -- in
7:04 AM 6:48 PM
First Quarter, 57% visible
Pressure 30.06 in
Visibility 10.0 miles
Clouds Mostly Cloudy 8000 ft
Mostly Cloudy 9000 ft
Windchill 18 °F
Dew Point 21 °F
Humidity 84%
Rainfall -9999.00 in
Snow Depth 1 in , 1 in , 1 in
UV 0 out of 12
Pollen 3.80 out of 12
Air Quality Not available.
Flu Activity Not available.
METAR KGUC 011135Z AUTO 00000KT 10SM BKN080 BKN090 01/M01 A3006 RMK AO1

More Conditions Fewer Conditions

Pressure 30.06 in
Visibility 10.0 miles
Clouds Mostly Cloudy 8000 ft
Mostly Cloudy 9000 ft
Windchill 18 °F
Dew Point 21 °F
Humidity 84%
Rainfall -9999.00 in
Snow Depth 1 in , 1 in , 1 in
UV 0 out of 12
Pollen 3.80 out of 12
Air Quality Not available.
Flu Activity Not available.
METAR KGUC 011135Z AUTO 00000KT 10SM BKN080 BKN090 01/M01 A3006 RMK AO1

More Conditions Fewer Conditions

10-Day Weather Forecast

Almanac

Astronomy

Oct. 02, 2014 Rise Set
Actual Time 7:04 AM MDT 6:48 PM MDT
Civil Twilight 6:38 AM MDT 7:15 PM MDT
Nautical Twilight 6:07 AM MDT 7:46 PM MDT
Astronomical Twilight 5:36 AM MDT 8:17 PM MDT
Moon 2:54 PM MDT 12:27 AM MDT
Length of Visible Light 12h 37m
Length of Day
11h 44m
Tomorrow will be 2m 31s shorter.
First Quarter, 57% of the Moon is Illuminated
Today
First Quarter
Oct 8
Full
Oct 15
Last Quarter
Oct 23
New
Oct 30
First Quarter

Today's Extremes

State Highs State Lows

Community

WunderPhotos

Upload Photos

1,758,216 photos uploaded!

WunderBlogs® & News

Nearby

Snow Depth

Station Depth Elevation
Niwot 1 in 9910 ft
Wolf Creek Summit 1 in 11000 ft
Grayback 1 in 11620 ft
Spud Mountain 0 in 10660 ft
Phantom Valley 0 in 9030 ft

Earthquake Activity

City Distance Mag. Time & Date
No recent earthquake activity has been reported nearby.
Minimum magnitude displayed is 2.5.

Coastal Water Temperatures

Place Temperature
No Stations Reporting

Nearby Weather Stations